Time;durP1;ratioP1;P1;durP2;ratioP2;P2;SDS_P1;SDS_P2;PMS_P1;PMS_P2;Temp;Humidity;BMP_temperature;BMP_pressure;BME280_temperature;BME280_humidity;BME280_pressure;Samples;Min_cycle;Max_cycle;Signal;HPM_P1;HPM_P2
2021/12/06 00:02:17;;;;;;;34.85;19.55;;;3.30;99.90;;;;;;5075400;28;20075;-70
2021/12/06 00:04:43;;;;;;;35.60;20.73;;;1.90;99.90;;;;;;5075600;28;20055;-70
2021/12/06 00:07:17;;;;;;;34.45;21.45;;;2.00;99.90;;;;;;5075440;28;20084;-71
2021/12/06 00:09:43;;;;;;;37.90;20.20;;;2.90;99.90;;;;;;5074223;28;20041;-69
2021/12/06 00:12:10;;;;;;;37.30;18.92;;;1.90;99.90;;;;;;5074283;28;20044;-70
2021/12/06 00:14:40;;;;;;;34.55;18.85;;;1.90;99.90;;;;;;5075421;28;20055;-68
2021/12/06 00:17:08;;;;;;;35.08;19.35;;;2.00;99.90;;;;;;5075379;28;20143;-72
2021/12/06 00:19:34;;;;;;;35.53;19.65;;;2.90;99.90;;;;;;5057747;28;20398;-69
2021/12/06 00:22:05;;;;;;;39.05;20.85;;;3.50;99.90;;;;;;5075183;28;20044;-70
2021/12/06 00:24:31;;;;;;;34.55;19.38;;;2.00;99.90;;;;;;5075210;28;20491;-70
2021/12/06 00:26:57;;;;;;;37.75;19.55;;;2.00;99.90;;;;;;5074011;28;20056;-69
2021/12/06 00:29:23;;;;;;;35.95;20.00;;;3.80;99.90;;;;;;5075161;28;20083;-69
2021/12/06 00:31:50;;;;;;;38.30;21.27;;;1.90;99.90;;;;;;5075075;28;20041;-70
2021/12/06 00:34:18;;;;;;;33.00;20.15;;;1.90;99.90;;;;;;5057457;28;20060;-69
2021/12/06 00:37:15;;;;;;;34.47;20.70;;;1.90;99.90;;;;;;5073905;28;20052;-70
2021/12/06 00:39:40;;;;;;;36.13;20.05;;;2.00;99.90;;;;;;5074689;28;20037;-70
2021/12/06 00:42:06;;;;;;;33.38;18.58;;;2.40;99.90;;;;;;5075038;28;20059;-70
2021/12/06 00:44:32;;;;;;;34.40;18.92;;;2.00;99.90;;;;;;5074909;28;20055;-69
2021/12/06 00:46:58;;;;;;;35.47;20.07;;;1.90;99.90;;;;;;5073425;28;20483;-70
2021/12/06 00:49:24;;;;;;;;;;;1.90;99.90;;;;;;5075028;28;20291;-71
2021/12/06 00:51:50;;;;;;;38.05;20.02;;;2.00;99.90;;;;;;5072928;28;20019;-70
2021/12/06 00:54:16;;;;;;;35.88;21.05;;;3.20;99.90;;;;;;5074494;28;20082;-69
2021/12/06 00:56:42;;;;;;;37.47;20.05;;;3.30;99.90;;;;;;5074687;28;20487;-70
2021/12/06 00:59:07;;;;;;;37.40;21.20;;;2.00;99.90;;;;;;5074567;28;20036;-70
2021/12/06 01:01:34;;;;;;;35.58;19.20;;;2.50;99.90;;;;;;5074521;28;20384;-69
2021/12/06 01:04:00;;;;;;;36.55;20.50;;;3.00;99.90;;;;;;5074361;28;20134;-69
2021/12/06 01:06:26;;;;;;;35.40;20.80;;;2.00;99.90;;;;;;5073362;28;20514;-69
2021/12/06 01:08:52;;;;;;;33.40;20.00;;;2.70;99.90;;;;;;5073048;28;20076;-69
2021/12/06 01:11:18;;;;;;;37.35;19.92;;;2.00;99.90;;;;;;5073288;28;20053;-70
2021/12/06 01:13:44;;;;;;;34.80;19.67;;;2.10;99.90;;;;;;5073056;28;20041;-70
2021/12/06 01:16:10;;;;;;;33.47;19.55;;;3.20;99.90;;;;;;5074234;28;20103;-70
2021/12/06 01:18:36;;;;;;;36.58;19.92;;;2.80;99.90;;;;;;5073134;28;20049;-69
2021/12/06 01:23:42;;;;;;;34.08;19.15;;;2.10;99.90;;;;;;5073915;28;20135;-70
2021/12/06 01:26:30;;;;;;;38.17;21.13;;;2.60;99.90;;;;;;5056363;28;20105;-72
2021/12/06 01:31:43;;;;;;;33.28;19.55;;;2.10;99.90;;;;;;5073860;28;20056;-70
2021/12/06 01:39:09;;;;;;;32.63;19.77;;;3.60;99.90;;;;;;5073641;28;20052;-69
2021/12/06 01:39:44;;;;;;;36.65;18.85;;;3.60;99.90;;;;;;5073709;28;20051;-70
2021/12/06 01:42:10;;;;;;;32.95;17.65;;;2.10;99.90;;;;;;5072538;28;20036;-69
2021/12/06 01:44:37;;;;;;;;;;;3.50;99.90;;;;;;5073965;28;20538;-69
2021/12/06 01:47:15;;;;;;;34.38;19.60;;;2.50;99.90;;;;;;5073788;28;20236;-69
2021/12/06 01:49:48;;;;;;;41.13;22.73;;;2.10;99.90;;;;;;5072464;28;20049;-72
2021/12/06 01:52:18;;;;;;;39.72;18.60;;;3.10;99.90;;;;;;5073375;28;20123;-72
2021/12/06 01:54:44;;;;;;;37.45;18.67;;;2.10;99.90;;;;;;5073440;28;20063;-70
2021/12/06 01:57:10;;;;;;;42.33;20.55;;;2.10;99.90;;;;;;5072222;28;20407;-70
2021/12/06 01:59:36;;;;;;;37.47;20.10;;;2.10;99.90;;;;;;5073604;28;20052;-69
2021/12/06 02:02:04;;;;;;;35.85;20.58;;;2.10;99.90;;;;;;5073447;28;20519;-70
2021/12/06 02:04:32;;;;;;;34.30;20.40;;;2.10;99.90;;;;;;5072943;28;20041;-71
2021/12/06 02:06:58;;;;;;;36.00;20.55;;;2.90;99.90;;;;;;5073486;28;20087;-69
2021/12/06 02:09:26;;;;;;;36.53;20.45;;;3.70;99.90;;;;;;5073281;28;20041;-69
2021/12/06 02:11:54;;;;;;;40.53;21.88;;;2.10;99.90;;;;;;5073181;28;20113;-72
2021/12/06 02:14:33;;;;;;;47.38;23.10;;;2.20;99.90;;;;;;5073421;28;20054;-70
2021/12/06 02:17:14;;;;;;;39.53;19.45;;;3.00;99.90;;;;;;5073351;28;20048;-70
2021/12/06 02:19:47;;;;;;;37.92;21.30;;;2.10;99.90;;;;;;5073094;28;20041;-70
2021/12/06 02:22:21;;;;;;;41.65;21.40;;;2.10;99.90;;;;;;5073181;28;20102;-70
2021/12/06 02:24:48;;;;;;;41.20;21.15;;;2.10;99.90;;;;;;5073061;28;20483;-72
2021/12/06 02:27:15;;;;;;;41.65;22.70;;;2.20;99.90;;;;;;5073345;28;20040;-72
2021/12/06 02:29:43;;;;;;;38.65;20.15;;;2.80;99.90;;;;;;5072999;28;20554;-70
2021/12/06 02:32:11;;;;;;;37.65;20.10;;;3.90;99.90;;;;;;5073105;28;20102;-71
2021/12/06 02:34:39;;;;;;;44.47;20.90;;;2.10;99.90;;;;;;5071940;28;20403;-71
2021/12/06 02:37:05;;;;;;;36.05;21.55;;;3.70;99.90;;;;;;5072937;28;20530;-70
2021/12/06 02:39:31;;;;;;;45.17;20.88;;;3.30;99.90;;;;;;5073212;28;20091;-69
2021/12/06 02:41:59;;;;;;;41.65;21.63;;;2.10;99.90;;;;;;5073188;28;20087;-70
2021/12/06 02:44:26;;;;;;;38.95;19.58;;;2.10;99.90;;;;;;5073058;28;20135;-69
2021/12/06 02:46:52;;;;;;;38.50;19.20;;;3.80;99.90;;;;;;5072952;28;20443;-69
2021/12/06 02:49:18;;;;;;;46.05;21.27;;;2.00;99.90;;;;;;5072912;28;20133;-70
2021/12/06 02:51:44;;;;;;;41.92;21.25;;;2.30;99.90;;;;;;5072637;28;20090;-69
2021/12/06 02:54:10;;;;;;;37.55;19.65;;;2.10;99.90;;;;;;5072946;28;20139;-71
2021/12/06 02:56:52;;;;;;;38.28;21.35;;;2.00;99.90;;;;;;5072900;28;20052;-70
2021/12/06 02:59:19;;;;;;;38.03;19.73;;;3.20;99.90;;;;;;5071670;28;20404;-70
2021/12/06 03:01:48;;;;;;;39.30;20.27;;;2.00;99.90;;;;;;5072816;28;20048;-70
2021/12/06 03:04:15;;;;;;;41.72;21.60;;;2.00;99.90;;;;;;5072750;28;20117;-70
2021/12/06 03:06:41;;;;;;;42.65;20.92;;;2.00;99.90;;;;;;5071670;28;20075;-69
2021/12/06 03:09:12;;;;;;;44.00;21.52;;;3.20;99.90;;;;;;5072859;28;20090;-72
2021/12/06 03:11:48;;;;;;;47.65;21.38;;;2.10;99.90;;;;;;5072802;28;20127;-69
2021/12/06 03:14:19;;;;;;;42.53;22.45;;;2.10;99.90;;;;;;5073632;28;20041;-69
2021/12/06 03:16:45;;;;;;;38.28;20.77;;;2.10;99.90;;;;;;5076221;28;20476;-69
2021/12/06 03:19:12;;;;;;;45.72;22.63;;;2.10;99.90;;;;;;5075323;28;20052;-68
2021/12/06 03:21:38;;;;;;;38.30;21.20;;;3.20;99.90;;;;;;5076431;28;20056;-71
2021/12/06 03:24:04;;;;;;;46.53;22.13;;;2.10;99.90;;;;;;5075459;28;20056;-70
2021/12/06 03:26:31;;;;;;;41.33;22.15;;;2.10;99.90;;;;;;5075411;28;20044;-70
2021/12/06 03:28:57;;;;;;;47.58;23.33;;;2.10;99.90;;;;;;5076178;28;20177;-72
2021/12/06 03:31:24;;;;;;;41.35;23.38;;;2.20;99.90;;;;;;5076096;28;20048;-69
2021/12/06 03:33:53;;;;;;;45.58;23.48;;;2.20;99.90;;;;;;5076001;28;20516;-70
2021/12/06 03:36:21;;;;;;;48.55;23.42;;;2.20;99.90;;;;;;5076161;28;20048;-69
2021/12/06 03:38:48;;;;;;;41.95;22.92;;;3.20;99.90;;;;;;5058358;28;20072;-70
2021/12/06 03:41:16;;;;;;;46.60;24.70;;;2.20;99.90;;;;;;5076056;28;20147;-70
2021/12/06 03:43:43;;;;;;;46.17;21.13;;;3.30;99.90;;;;;;5074823;28;20380;-70
2021/12/06 03:46:11;;;;;;;46.97;21.77;;;2.20;99.90;;;;;;5076017;28;20107;-70
2021/12/06 03:48:37;;;;;;;42.22;22.27;;;2.20;99.90;;;;;;5075601;28;20056;-72
2021/12/06 03:51:03;;;;;;;43.15;20.55;;;2.20;99.90;;;;;;5075075;28;20064;-72
2021/12/06 03:53:30;;;;;;;42.67;23.85;;;2.20;99.90;;;;;;5074429;28;20143;-69
2021/12/06 03:55:55;;;;;;;;;;;2.40;99.90;;;;;;5076220;28;20079;-69
2021/12/06 03:58:22;;;;;;;42.95;24.15;;;2.20;99.90;;;;;;5075603;28;20336;-72
2021/12/06 04:00:48;;;;;;;46.75;22.83;;;2.20;99.90;;;;;;5075632;28;20048;-68
2021/12/06 04:03:14;;;;;;;41.33;22.35;;;3.50;99.90;;;;;;5075570;28;20136;-69
2021/12/06 04:05:40;;;;;;;44.33;23.35;;;3.40;99.90;;;;;;5075730;28;20056;-70
2021/12/06 04:08:06;;;;;;;45.05;22.13;;;2.30;99.90;;;;;;5075570;28;20090;-71
2021/12/06 04:10:32;;;;;;;43.33;21.38;;;2.30;99.90;;;;;;5074561;28;20140;-71
2021/12/06 04:12:59;;;;;;;43.15;22.00;;;2.60;99.90;;;;;;5075561;28;20126;-69
2021/12/06 04:15:28;;;;;;;45.13;24.15;;;2.30;99.90;;;;;;5074335;28;20049;-70
2021/12/06 04:17:54;;;;;;;44.65;22.75;;;3.40;99.90;;;;;;5074162;28;20056;-70
2021/12/06 04:20:20;;;;;;;46.38;24.05;;;2.30;99.90;;;;;;5075409;28;20411;-70
2021/12/06 04:22:46;;;;;;;51.50;24.25;;;3.20;99.90;;;;;;5075330;28;20057;-70
2021/12/06 04:25:14;;;;;;;40.05;23.38;;;2.70;99.90;;;;;;5075003;28;20045;-72
2021/12/06 04:27:40;;;;;;;40.65;20.80;;;2.40;99.90;;;;;;5073668;28;20056;-72
2021/12/06 04:30:08;;;;;;;38.38;20.75;;;2.70;99.90;;;;;;5075071;28;20051;-69
2021/12/06 04:32:34;;;;;;;39.08;18.92;;;2.40;99.90;;;;;;5074895;28;20474;-69
2021/12/06 04:35:00;;;;;;;44.58;20.70;;;2.40;99.90;;;;;;5075141;28;20076;-69
2021/12/06 04:37:26;;;;;;;38.20;23.92;;;2.40;99.90;;;;;;5075061;28;20114;-70
2021/12/06 04:39:52;;;;;;;41.58;18.77;;;2.40;99.90;;;;;;5074047;28;20084;-73
2021/12/06 04:42:21;;;;;;;34.72;19.70;;;3.60;99.90;;;;;;5074822;28;20080;-69
2021/12/06 04:44:47;;;;;;;38.60;20.60;;;2.50;99.90;;;;;;5074661;28;20044;-72
2021/12/06 04:47:13;;;;;;;40.85;20.58;;;2.40;99.90;;;;;;5073577;28;20488;-70
2021/12/06 04:49:39;;;;;;;40.67;20.40;;;2.40;99.90;;;;;;5074467;28;20052;-69
2021/12/06 04:52:08;;;;;;;35.90;19.80;;;2.40;99.90;;;;;;5074812;28;20056;-70
2021/12/06 04:54:39;;;;;;;41.70;21.50;;;2.40;99.90;;;;;;5090087;28;20109;-69
2021/12/06 04:57:10;;;;;;;39.05;20.15;;;2.40;99.90;;;;;;5056939;28;20054;-70
2021/12/06 04:59:47;;;;;;;41.90;20.25;;;2.40;99.90;;;;;;5073737;28;20096;-72
2021/12/06 05:02:23;;;;;;;39.03;18.95;;;3.50;99.90;;;;;;5073210;28;20084;-73
2021/12/06 05:04:54;;;;;;;43.55;20.88;;;2.70;99.90;;;;;;5074464;28;20098;-71
2021/12/06 05:07:38;;;;;;;42.45;21.02;;;2.60;99.90;;;;;;5074386;28;20384;-70
2021/12/06 05:10:06;;;;;;;39.75;20.85;;;2.40;99.90;;;;;;5074134;28;20051;-69
2021/12/06 05:12:32;;;;;;;40.25;21.10;;;2.40;99.90;;;;;;5074071;28;20082;-70
2021/12/06 05:14:59;;;;;;;40.40;20.88;;;2.60;99.90;;;;;;5074282;28;20048;-70
2021/12/06 05:17:25;;;;;;;;;;;2.40;99.90;;;;;;5074596;28;20044;-69
2021/12/06 05:19:51;;;;;;;39.15;20.27;;;3.20;99.90;;;;;;5074088;28;19920;-70
2021/12/06 05:22:18;;;;;;;35.97;20.17;;;2.40;99.90;;;;;;5073144;28;20048;-70
2021/12/06 05:24:44;;;;;;;39.17;21.98;;;2.40;99.90;;;;;;5073006;28;20048;-69
2021/12/06 05:27:10;;;;;;;40.50;21.15;;;2.30;99.90;;;;;;5073861;28;20398;-70
2021/12/06 05:29:36;;;;;;;39.15;20.02;;;2.80;99.90;;;;;;5073996;28;20052;-72
2021/12/06 05:32:02;;;;;;;39.55;20.17;;;2.80;99.90;;;;;;5073995;28;20438;-70
2021/12/06 05:34:41;;;;;;;38.22;19.80;;;2.40;99.90;;;;;;5073856;28;20120;-69
2021/12/06 05:37:10;;;;;;;35.03;19.90;;;4.00;99.90;;;;;;5072524;28;20106;-71
2021/12/06 05:39:35;;;;;;;40.90;20.15;;;2.40;99.90;;;;;;5073732;28;20049;-72
2021/12/06 05:42:06;;;;;;;38.03;20.60;;;2.40;99.90;;;;;;5073594;28;20044;-69
2021/12/06 05:44:32;;;;;;;38.97;20.98;;;2.40;99.90;;;;;;5073523;28;20453;-70
2021/12/06 05:46:59;;;;;;;37.80;21.48;;;2.40;99.90;;;;;;5073661;28;20044;-69
2021/12/06 05:49:26;;;;;;;40.67;20.55;;;2.40;99.90;;;;;;5073656;28;20045;-69
2021/12/06 05:51:52;;;;;;;43.05;20.75;;;2.40;99.90;;;;;;5073553;28;20051;-71
2021/12/06 05:54:18;;;;;;;37.80;20.63;;;3.10;99.90;;;;;;5073134;28;20045;-69
2021/12/06 05:56:44;;;;;;;39.85;19.98;;;2.40;99.90;;;;;;5073281;28;20131;-70
2021/12/06 05:59:12;;;;;;;37.55;20.80;;;3.60;99.90;;;;;;5073577;28;20051;-71
2021/12/06 06:01:38;;;;;;;37.80;20.30;;;2.60;99.90;;;;;;5073502;28;20131;-70
2021/12/06 06:04:04;;;;;;;44.17;21.90;;;3.10;99.90;;;;;;5073420;28;20082;-70
2021/12/06 06:06:35;;;;;;;;;;;2.40;99.90;;;;;;5072843;28;20064;-70
2021/12/06 06:09:01;;;;;;;42.85;21.45;;;2.50;99.90;;;;;;5072200;28;19973;-69
2021/12/06 06:11:27;;;;;;;;;;;2.50;99.90;;;;;;5073619;28;20074;-70
2021/12/06 06:13:52;;;;;;;41.72;21.58;;;3.20;99.90;;;;;;5072374;28;19920;-72
2021/12/06 06:16:21;;;;;;;40.33;23.38;;;2.50;99.90;;;;;;5073379;28;20043;-70
2021/12/06 06:18:48;;;;;;;39.50;20.80;;;2.50;99.90;;;;;;5073271;28;20427;-70
2021/12/06 06:21:15;;;;;;;45.85;22.20;;;2.50;99.90;;;;;;5073204;28;20044;-70
2021/12/06 06:23:41;;;;;;;43.53;23.70;;;2.50;99.90;;;;;;5072173;28;20087;-69
2021/12/06 06:26:07;;;;;;;42.22;20.67;;;2.40;99.90;;;;;;5073062;28;20075;-69
2021/12/06 06:28:33;;;;;;;43.45;21.23;;;2.90;99.90;;;;;;5072076;28;20476;-70
2021/12/06 06:30:59;;;;;;;41.22;21.20;;;2.40;99.90;;;;;;5073287;28;20052;-69
2021/12/06 06:33:25;;;;;;;48.50;22.52;;;2.40;99.90;;;;;;5073083;28;20415;-70
2021/12/06 06:35:51;;;;;;;42.80;24.17;;;2.40;99.90;;;;;;5073039;28;20074;-70
2021/12/06 06:38:17;;;;;;;47.20;22.77;;;2.40;99.90;;;;;;5073179;28;20044;-70
2021/12/06 06:40:44;;;;;;;49.47;25.20;;;2.40;99.90;;;;;;5072939;28;20076;-70
2021/12/06 06:43:10;;;;;;;41.90;22.50;;;3.10;99.90;;;;;;5072240;28;20481;-70
2021/12/06 06:45:35;;;;;;;43.78;22.33;;;3.90;99.90;;;;;;5072957;28;20043;-70
2021/12/06 06:48:02;;;;;;;45.08;22.52;;;2.40;99.90;;;;;;5072960;28;20084;-69
2021/12/06 06:50:27;;;;;;;43.75;22.38;;;2.40;99.90;;;;;;5074756;28;20126;-70
2021/12/06 06:52:54;;;;;;;44.00;21.92;;;2.40;99.90;;;;;;5076753;28;20107;-69
2021/12/06 06:55:20;;;;;;;45.00;23.50;;;4.40;99.90;;;;;;5076860;28;20057;-70
2021/12/06 06:57:46;;;;;;;43.10;22.50;;;4.00;99.90;;;;;;5076979;28;20048;-72
2021/12/06 07:00:29;;;;;;;46.42;23.85;;;2.90;99.90;;;;;;5076933;28;20045;-70
2021/12/06 07:02:55;;;;;;;49.55;23.30;;;2.40;99.90;;;;;;5076737;28;20141;-69
2021/12/06 07:05:21;;;;;;;;;;;2.40;99.90;;;;;;5077123;28;20044;-71
2021/12/06 07:07:46;;;;;;;44.70;23.75;;;3.80;99.90;;;;;;5076639;28;19932;-69
2021/12/06 07:10:12;;;;;;;42.95;24.45;;;4.00;99.90;;;;;;5076371;28;20499;-69
2021/12/06 07:12:46;;;;;;;48.38;23.35;;;3.10;99.90;;;;;;5076725;28;20440;-70
2021/12/06 07:15:15;;;;;;;48.35;25.02;;;3.10;99.90;;;;;;5075225;28;20045;-69
2021/12/06 07:17:42;;;;;;;43.15;21.92;;;2.70;99.90;;;;;;5076197;28;20518;-72
2021/12/06 07:20:09;;;;;;;48.90;24.70;;;2.30;99.90;;;;;;5076441;28;20052;-69
2021/12/06 07:22:35;;;;;;;43.85;23.63;;;2.30;99.90;;;;;;5057630;28;20056;-70
2021/12/06 07:25:03;;;;;;;44.45;22.58;;;3.20;99.90;;;;;;5074799;28;20044;-69
2021/12/06 07:27:29;;;;;;;49.75;24.10;;;2.30;99.90;;;;;;5075791;28;20045;-72
2021/12/06 07:29:54;;;;;;;52.97;24.00;;;2.90;99.90;;;;;;5074976;28;20101;-69
2021/12/06 07:32:20;;;;;;;45.60;22.15;;;3.60;99.90;;;;;;5076036;28;20083;-70
2021/12/06 07:34:47;;;;;;;53.58;24.83;;;2.20;99.90;;;;;;5076022;28;20048;-71
2021/12/06 07:37:13;;;;;;;49.67;25.33;;;3.70;99.90;;;;;;5075009;28;20044;-70
2021/12/06 07:39:39;;;;;;;47.30;22.42;;;3.20;99.90;;;;;;5074920;28;20055;-75
2021/12/06 07:42:05;;;;;;;52.00;22.60;;;2.30;99.90;;;;;;5076131;28;20101;-70
2021/12/06 07:44:31;;;;;;;54.05;26.05;;;2.30;99.90;;;;;;5076112;28;20044;-72
2021/12/06 07:46:56;;;;;;;;;;;3.30;99.90;;;;;;5076308;28;20075;-72
2021/12/06 07:49:22;;;;;;;48.10;23.63;;;2.70;99.90;;;;;;5074733;28;19924;-71
2021/12/06 07:51:49;;;;;;;49.60;24.10;;;3.70;99.90;;;;;;5075844;28;20049;-70
2021/12/06 07:54:15;;;;;;;45.58;23.35;;;3.20;99.90;;;;;;5075648;28;20082;-71
2021/12/06 07:56:42;;;;;;;60.67;25.42;;;2.20;99.90;;;;;;5074615;28;20109;-70
2021/12/06 07:59:07;;;;;;;52.92;25.35;;;2.20;99.90;;;;;;5075777;28;20083;-70
2021/12/06 08:01:33;;;;;;;51.17;26.35;;;2.30;99.90;;;;;;5074398;28;20076;-70
2021/12/06 08:04:00;;;;;;;50.15;25.10;;;3.60;99.90;;;;;;5075512;28;20048;-69
2021/12/06 08:06:27;;;;;;;52.55;23.90;;;2.30;99.90;;;;;;5075463;28;20044;-70
2021/12/06 08:08:54;;;;;;;43.83;21.98;;;2.30;99.90;;;;;;5074334;28;20131;-70
2021/12/06 08:11:21;;;;;;;43.80;22.80;;;4.20;99.90;;;;;;5075604;28;20045;-71
2021/12/06 08:13:56;;;;;;;48.33;23.80;;;2.70;99.90;;;;;;5075500;28;20052;-70
2021/12/06 08:16:32;;;;;;;46.78;23.77;;;2.90;99.90;;;;;;5075433;28;20487;-69
2021/12/06 08:18:59;;;;;;;45.05;22.35;;;3.30;99.90;;;;;;5075265;28;20407;-71
2021/12/06 08:21:26;;;;;;;43.00;22.65;;;2.40;99.90;;;;;;5075144;28;20049;-69
2021/12/06 08:23:54;;;;;;;46.15;24.30;;;2.40;99.90;;;;;;5074930;28;20040;-70
2021/12/06 08:26:23;;;;;;;45.88;22.77;;;2.90;99.90;;;;;;5075258;28;20048;-69
2021/12/06 08:28:50;;;;;;;41.83;22.73;;;3.90;99.90;;;;;;5075009;28;20186;-70
2021/12/06 08:31:18;;;;;;;42.00;22.17;;;2.60;99.90;;;;;;5075070;28;20086;-69
2021/12/06 08:33:46;;;;;;;45.22;22.65;;;2.30;99.90;;;;;;5073859;28;20507;-72
2021/12/06 08:36:12;;;;;;;37.92;19.88;;;2.40;99.90;;;;;;5074770;28;20052;-70
2021/12/06 08:38:40;;;;;;;41.83;21.90;;;2.30;99.90;;;;;;5074824;28;20491;-72
2021/12/06 08:41:10;;;;;;;35.97;20.35;;;2.30;99.90;;;;;;5075047;28;20052;-70
2021/12/06 08:43:37;;;;;;;37.15;20.45;;;2.40;99.90;;;;;;5074888;28;20495;-70
2021/12/06 08:46:07;;;;;;;37.00;19.98;;;3.10;99.90;;;;;;5074865;28;20123;-70
2021/12/06 08:48:35;;;;;;;33.22;17.35;;;3.10;99.90;;;;;;5074394;28;20407;-69
2021/12/06 08:51:08;;;;;;;37.75;18.83;;;2.40;99.90;;;;;;5074595;28;20045;-69
2021/12/06 08:53:35;;;;;;;34.17;19.55;;;2.40;99.90;;;;;;5074461;28;20404;-70
2021/12/06 08:56:01;;;;;;;41.60;20.73;;;2.40;99.90;;;;;;5071496;28;20053;-70
2021/12/06 08:58:26;;;;;;;39.30;22.25;;;3.20;99.90;;;;;;5074240;28;20053;-70
2021/12/06 09:00:55;;;;;;;42.53;20.90;;;2.40;99.90;;;;;;5074530;28;20094;-70
2021/12/06 09:03:20;;;;;;;38.00;20.85;;;2.40;99.90;;;;;;5074295;28;20682;-69
2021/12/06 09:05:49;;;;;;;42.33;21.08;;;2.40;99.90;;;;;;5074220;28;20101;-73
2021/12/06 09:08:17;;;;;;;40.13;21.65;;;4.30;99.90;;;;;;5074539;28;20107;-72
2021/12/06 09:10:43;;;;;;;39.33;20.30;;;3.40;99.90;;;;;;5072865;28;20048;-72
2021/12/06 09:13:10;;;;;;;47.42;24.02;;;2.40;99.90;;;;;;5072851;28;20048;-70
2021/12/06 09:15:36;;;;;;;40.88;19.88;;;2.50;99.90;;;;;;5074254;28;20040;-72
2021/12/06 09:18:02;;;;;;;38.97;19.13;;;3.90;99.90;;;;;;5074015;28;20165;-70
2021/12/06 09:20:32;;;;;;;38.03;19.30;;;2.50;99.90;;;;;;5072416;28;20098;-70
2021/12/06 09:22:59;;;;;;;39.78;20.42;;;3.30;99.90;;;;;;5073991;28;20044;-72
2021/12/06 09:25:29;;;;;;;37.78;20.92;;;2.50;99.90;;;;;;5074029;28;20071;-71
2021/12/06 09:27:56;;;;;;;34.42;18.48;;;3.00;99.90;;;;;;5073987;28;20482;-70
2021/12/06 09:30:26;;;;;;;40.75;19.38;;;3.30;99.90;;;;;;5072609;28;20128;-70
2021/12/06 09:32:52;;;;;;;37.08;19.02;;;2.60;99.90;;;;;;5072535;28;20070;-69
2021/12/06 09:35:23;;;;;;;33.42;17.95;;;3.10;99.90;;;;;;5072962;28;20056;-69
2021/12/06 09:37:49;;;;;;;35.13;17.85;;;3.50;99.90;;;;;;5074077;28;20402;-70
2021/12/06 09:40:16;;;;;;;37.47;19.63;;;2.60;99.90;;;;;;5073805;28;20040;-70
2021/12/06 09:42:43;;;;;;;30.80;18.23;;;2.50;99.90;;;;;;5073819;28;20044;-70
2021/12/06 09:45:13;;;;;;;36.20;17.17;;;2.50;99.90;;;;;;5072593;28;20044;-72
2021/12/06 09:47:40;;;;;;;35.22;17.52;;;2.60;99.90;;;;;;5073382;28;20415;-71
2021/12/06 09:50:06;;;;;;;34.72;17.50;;;3.30;99.90;;;;;;5073716;28;20044;-70
2021/12/06 09:52:33;;;;;;;31.08;15.55;;;2.60;99.90;;;;;;5073634;28;20090;-70
2021/12/06 09:54:59;;;;;;;28.33;17.80;;;3.40;99.90;;;;;;5072298;28;20057;-69
2021/12/06 09:57:25;;;;;;;31.45;16.40;;;2.90;99.90;;;;;;5072525;28;20136;-71
2021/12/06 09:59:51;;;;;;;31.92;17.27;;;3.20;99.90;;;;;;5073479;28;20087;-72
2021/12/06 10:02:32;;;;;;;33.55;16.30;;;3.60;99.90;;;;;;5073306;28;20131;-70
2021/12/06 10:04:58;;;;;;;31.77;16.58;;;2.70;99.90;;;;;;5073517;28;20380;-70
2021/12/06 10:07:25;;;;;;;35.70;17.92;;;3.80;99.90;;;;;;5073460;28;20106;-71
2021/12/06 10:09:53;;;;;;;33.97;16.63;;;3.70;99.90;;;;;;5073357;28;20040;-71
2021/12/06 10:12:20;;;;;;;32.78;16.15;;;2.90;99.90;;;;;;5073340;28;20084;-68
2021/12/06 10:14:47;;;;;;;31.52;15.45;;;2.70;99.90;;;;;;5073178;28;20084;-70
2021/12/06 10:17:32;;;;;;;32.55;17.25;;;4.20;99.90;;;;;;5073105;28;20044;-70
2021/12/06 10:19:58;;;;;;;31.35;16.25;;;2.80;99.90;;;;;;5073335;28;20041;-70
2021/12/06 10:22:26;;;;;;;32.15;18.45;;;2.80;99.90;;;;;;5072286;28;20091;-72
2021/12/06 10:24:56;;;;;;;34.90;17.00;;;4.40;99.90;;;;;;5072375;28;20131;-70
2021/12/06 10:27:23;;;;;;;30.77;17.13;;;2.80;99.90;;;;;;5073170;28;20044;-70
2021/12/06 10:30:03;;;;;;;35.75;17.98;;;3.50;99.90;;;;;;5071745;28;20044;-71
2021/12/06 10:32:39;;;;;;;33.78;18.70;;;2.80;99.90;;;;;;5073164;28;20048;-69
2021/12/06 10:35:12;;;;;;;32.13;17.80;;;2.80;99.90;;;;;;5072205;28;20056;-69
2021/12/06 10:37:46;;;;;;;38.13;19.13;;;2.70;99.90;;;;;;5072091;28;20045;-69
2021/12/06 10:40:30;;;;;;;35.28;18.50;;;3.60;99.90;;;;;;5071885;28;20056;-71
2021/12/06 10:42:57;;;;;;;35.97;19.65;;;2.80;99.90;;;;;;5073100;28;20048;-68
2021/12/06 10:45:47;;;;;;;37.25;17.83;;;3.30;99.90;;;;;;5071885;28;20482;-69
2021/12/06 10:48:18;;;;;;;38.08;18.80;;;2.70;99.90;;;;;;5030654;28;20089;-69
2021/12/06 10:51:07;;;;;;;28.17;14.90;;;2.80;99.90;;;;;;5030583;28;20184;-72
2021/12/06 10:53:58;;;;;;;34.53;16.08;;;3.20;99.90;;;;;;5029802;28;20065;-69
2021/12/06 10:56:33;;;;;;;30.02;16.23;;;2.80;99.90;;;;;;5030821;28;20053;-69
2021/12/06 10:59:03;;;;;;;27.00;15.15;;;3.00;99.90;;;;;;5030615;28;20145;-70
2021/12/06 11:01:32;;;;;;;27.25;15.68;;;2.80;99.90;;;;;;5030719;28;20056;-70
2021/12/06 11:04:00;;;;;;;32.60;17.63;;;2.80;99.90;;;;;;5014077;28;20508;-69
2021/12/06 11:06:32;;;;;;;27.88;13.73;;;3.70;99.90;;;;;;5030709;28;20054;-69
2021/12/06 11:09:00;;;;;;;26.63;13.90;;;2.90;99.90;;;;;;5030471;28;20038;-69
2021/12/06 11:11:31;;;;;;;24.67;13.75;;;2.90;99.90;;;;;;5030624;28;20075;-69
2021/12/06 11:14:19;;;;;;;24.50;13.20;;;4.70;99.90;;;;;;5030507;28;20149;-70
2021/12/06 11:16:47;;;;;;;28.08;14.00;;;2.80;99.90;;;;;;5030464;28;20502;-70
2021/12/06 11:19:15;;;;;;;24.52;12.82;;;3.60;99.90;;;;;;5013994;28;20112;-70
2021/12/06 11:21:51;;;;;;;24.67;13.57;;;3.10;99.90;;;;;;5014249;28;20092;-69
2021/12/06 11:24:29;;;;;;;25.10;13.60;;;2.60;99.90;;;;;;5019041;28;20772;-69
2021/12/06 11:26:58;;;;;;;26.75;14.10;;;2.60;99.90;;;;;;5072662;28;20043;-69
2021/12/06 11:29:36;;;;;;;30.42;15.77;;;2.60;99.90;;;;;;5071515;28;20053;-72
2021/12/06 11:32:12;;;;;;;23.67;13.38;;;2.60;99.90;;;;;;5072590;28;20049;-71
2021/12/06 11:34:44;;;;;;;29.60;14.40;;;2.60;99.90;;;;;;5072331;28;20044;-70
2021/12/06 11:37:26;;;;;;;29.75;15.10;;;2.60;99.90;;;;;;5075916;28;20403;-71
2021/12/06 11:40:04;;;;;;;29.10;15.98;;;2.60;99.90;;;;;;5075436;28;20552;-72
2021/12/06 11:42:30;;;;;;;28.60;14.70;;;2.70;99.90;;;;;;5074855;28;20124;-71
2021/12/06 11:44:56;;;;;;;30.67;16.23;;;3.50;99.90;;;;;;5075135;28;20110;-68
2021/12/06 11:47:22;;;;;;;28.35;16.08;;;4.20;99.90;;;;;;5074871;28;20048;-69
2021/12/06 11:49:56;;;;;;;27.10;14.73;;;2.70;99.90;;;;;;5075834;28;20044;-69
2021/12/06 11:52:28;;;;;;;30.35;15.48;;;4.10;99.90;;;;;;5074595;28;20048;-70
2021/12/06 11:55:12;;;;;;;28.63;15.23;;;2.70;99.90;;;;;;5075714;28;20135;-69
2021/12/06 11:57:43;;;;;;;28.17;14.60;;;4.30;99.90;;;;;;5075712;28;20056;-69
2021/12/06 12:00:17;;;;;;;30.02;14.98;;;4.00;99.90;;;;;;5075517;28;20123;-69
2021/12/06 12:02:49;;;;;;;27.73;15.00;;;2.70;99.90;;;;;;5075878;28;20052;-69
2021/12/06 12:05:24;;;;;;;31.77;15.63;;;2.70;99.90;;;;;;5075641;28;20040;-69
2021/12/06 12:08:02;;;;;;;26.75;14.60;;;4.20;99.90;;;;;;5074563;28;20040;-71
2021/12/06 12:10:33;;;;;;;25.13;14.65;;;2.70;99.90;;;;;;5075337;28;20048;-69
2021/12/06 12:12:59;;;;;;;24.92;15.25;;;2.70;99.90;;;;;;5091481;28;20576;-69
2021/12/06 12:15:25;;;;;;;30.13;15.50;;;2.80;99.90;;;;;;5075566;28;20044;-71
2021/12/06 12:17:51;;;;;;;25.40;13.95;;;2.70;99.90;;;;;;5075176;28;20491;-70
2021/12/06 12:20:22;;;;;;;;;;;2.70;99.90;;;;;;5074750;28;20526;-70
2021/12/06 12:22:50;;;;;;;26.95;13.85;;;2.80;99.90;;;;;;5074143;28;19927;-70
2021/12/06 12:25:25;;;;;;;25.55;14.18;;;4.70;99.90;;;;;;5074071;28;20044;-70
2021/12/06 12:28:02;;;;;;;24.00;13.77;;;2.80;99.90;;;;;;5075259;28;20048;-70
2021/12/06 12:30:32;;;;;;;26.27;13.27;;;4.00;99.90;;;;;;5075033;28;20556;-69
2021/12/06 12:33:01;;;;;;;28.92;14.43;;;2.80;99.90;;;;;;5075036;28;20412;-70
2021/12/06 12:35:30;;;;;;;27.15;14.60;;;2.80;99.90;;;;;;5073999;28;20063;-70
2021/12/06 12:37:56;;;;;;;26.27;14.63;;;4.20;99.90;;;;;;5074863;28;20051;-70
2021/12/06 12:40:25;;;;;;;27.45;14.10;;;4.40;99.90;;;;;;5074999;28;20045;-70
2021/12/06 12:43:02;;;;;;;25.30;13.35;;;4.30;99.90;;;;;;5073887;28;20044;-70
2021/12/06 12:45:32;;;;;;;;;;;2.90;99.90;;;;;;5075355;28;20063;-71
2021/12/06 12:47:58;;;;;;;28.58;13.77;;;2.90;99.90;;;;;;5073904;28;19920;-69
2021/12/06 12:50:25;;;;;;;29.25;14.10;;;3.60;99.90;;;;;;5073160;28;20070;-70
2021/12/06 12:52:54;;;;;;;28.08;15.32;;;2.90;99.90;;;;;;5074730;28;20048;-70
2021/12/06 12:55:31;;;;;;;32.55;16.40;;;3.10;99.90;;;;;;5074593;28;20503;-70
2021/12/06 12:58:18;;;;;;;29.38;15.52;;;2.90;99.90;;;;;;5073681;28;20070;-70